sensor_id;sensor_type;location;lat;lon;timestamp;pressure;altitude;pressure_sealevel;temperature;humidity
74270;BME280;62754;48.252;11.654;2023-12-20T10:45:20;96182.31;;;5.42;93.50
74270;BME280;62754;48.252;11.654;2023-12-20T10:47:46;96186.50;;;5.28;94.46
74270;BME280;62754;48.252;11.654;2023-12-20T10:50:12;96187.28;;;5.15;94.72
74270;BME280;62754;48.252;11.654;2023-12-20T10:52:40;96175.31;;;5.15;94.28
74270;BME280;62754;48.252;11.654;2023-12-20T10:55:07;96184.72;;;5.15;94.12
74270;BME280;62754;48.252;11.654;2023-12-20T10:57:32;96181.06;;;5.19;94.35
74270;BME280;62754;48.252;11.654;2023-12-20T11:00:01;96167.88;;;5.26;93.87
74270;BME280;62754;48.252;11.654;2023-12-20T11:02:32;96186.28;;;5.17;93.33
74270;BME280;62754;48.252;11.654;2023-12-20T11:04:59;96178.72;;;5.16;92.70
74270;BME280;62754;48.252;11.654;2023-12-20T11:10:14;96170.59;;;5.23;92.46
74270;BME280;62754;48.252;11.654;2023-12-20T11:13:10;96162.88;;;5.25;92.15
74270;BME280;62754;48.252;11.654;2023-12-20T11:15:36;96171.63;;;5.35;91.90
74270;BME280;62754;48.252;11.654;2023-12-20T11:18:03;96168.44;;;5.32;92.34
74270;BME280;62754;48.252;11.654;2023-12-20T11:20:40;96165.50;;;5.38;92.11
74270;BME280;62754;48.252;11.654;2023-12-20T11:23:07;96158.09;;;5.33;92.36
74270;BME280;62754;48.252;11.654;2023-12-20T11:25:48;96161.34;;;5.37;92.21
74270;BME280;62754;48.252;11.654;2023-12-20T11:28:14;96152.91;;;5.49;92.21
74270;BME280;62754;48.252;11.654;2023-12-20T11:30:41;96149.19;;;5.54;91.73
74270;BME280;62754;48.252;11.654;2023-12-20T11:33:08;96138.03;;;5.84;90.54
74270;BME280;62754;48.252;11.654;2023-12-20T11:35:34;96142.50;;;5.80;89.14
74270;BME280;62754;48.252;11.654;2023-12-20T11:38:01;96140.00;;;5.94;88.44
74270;BME280;62754;48.252;11.654;2023-12-20T11:40:27;96130.47;;;5.96;87.26
74270;BME280;62754;48.252;11.654;2023-12-20T11:42:53;96131.66;;;6.05;86.56
74270;BME280;62754;48.252;11.654;2023-12-20T11:45:24;96118.03;;;6.04;86.50
74270;BME280;62754;48.252;11.654;2023-12-20T11:47:51;96110.31;;;5.92;85.53
74270;BME280;62754;48.252;11.654;2023-12-20T11:50:21;96119.97;;;6.01;85.94
74270;BME280;62754;48.252;11.654;2023-12-20T11:52:48;96127.84;;;5.98;85.49
74270;BME280;62754;48.252;11.654;2023-12-20T11:55:15;96129.81;;;6.07;85.03
74270;BME280;62754;48.252;11.654;2023-12-20T11:57:42;96132.53;;;6.18;84.95
74270;BME280;62754;48.252;11.654;2023-12-20T12:00:09;96123.84;;;6.20;84.29
74270;BME280;62754;48.252;11.654;2023-12-20T12:02:35;96131.28;;;6.11;85.13
74270;BME280;62754;48.252;11.654;2023-12-20T12:05:01;96118.88;;;6.05;85.08
74270;BME280;62754;48.252;11.654;2023-12-20T12:07:27;96120.13;;;6.12;85.38
74270;BME280;62754;48.252;11.654;2023-12-20T12:09:53;96127.72;;;5.99;85.11
74270;BME280;62754;48.252;11.654;2023-12-20T12:12:19;96120.53;;;5.92;85.76
74270;BME280;62754;48.252;11.654;2023-12-20T12:14:45;96121.16;;;5.95;86.41
74270;BME280;62754;48.252;11.654;2023-12-20T12:17:14;96126.91;;;5.85;87.75
74270;BME280;62754;48.252;11.654;2023-12-20T12:19:42;96131.75;;;5.75;89.25
74270;BME280;62754;48.252;11.654;2023-12-20T12:22:13;96127.22;;;5.52;90.20
74270;BME280;62754;48.252;11.654;2023-12-20T12:24:43;96127.22;;;5.52;90.22
74270;BME280;62754;48.252;11.654;2023-12-20T12:27:11;96130.47;;;5.25;89.68
74270;BME280;62754;48.252;11.654;2023-12-20T12:29:37;96125.00;;;5.17;89.64
74270;BME280;62754;48.252;11.654;2023-12-20T12:32:08;96117.50;;;5.14;89.65
74270;BME280;62754;48.252;11.654;2023-12-20T12:34:34;96124.25;;;5.15;89.33
74270;BME280;62754;48.252;11.654;2023-12-20T12:37:01;96116.03;;;5.10;89.31
74270;BME280;62754;48.252;11.654;2023-12-20T12:39:27;96114.84;;;5.02;89.42
74270;BME280;62754;48.252;11.654;2023-12-20T12:41:55;96111.22;;;5.06;89.78
74270;BME280;62754;48.252;11.654;2023-12-20T12:44:20;96095.13;;;5.04;90.05
74270;BME280;62754;48.252;11.654;2023-12-20T12:46:49;96104.28;;;5.22;88.51
74270;BME280;62754;48.252;11.654;2023-12-20T12:49:19;96107.69;;;5.37;88.02
74270;BME280;62754;48.252;11.654;2023-12-20T12:51:46;96104.19;;;5.23;88.19
74270;BME280;62754;48.252;11.654;2023-12-20T12:54:12;96108.84;;;5.31;87.85
74270;BME280;62754;48.252;11.654;2023-12-20T12:56:40;96113.13;;;5.45;86.82
74270;BME280;62754;48.252;11.654;2023-12-20T12:59:06;96113.97;;;5.31;86.70
74270;BME280;62754;48.252;11.654;2023-12-20T13:01:32;96114.16;;;5.28;87.05
74270;BME280;62754;48.252;11.654;2023-12-20T13:03:58;96120.16;;;5.13;87.19
74270;BME280;62754;48.252;11.654;2023-12-20T13:06:24;96125.41;;;5.10;87.33
74270;BME280;62754;48.252;11.654;2023-12-20T13:08:49;96129.63;;;5.11;87.59
74270;BME280;62754;48.252;11.654;2023-12-20T13:11:15;96128.91;;;5.09;87.01
74270;BME280;62754;48.252;11.654;2023-12-20T13:13:41;96119.13;;;5.01;87.66
74270;BME280;62754;48.252;11.654;2023-12-20T13:16:07;96129.41;;;5.00;86.91
74270;BME280;62754;48.252;11.654;2023-12-20T13:18:33;96129.28;;;5.17;87.26
74270;BME280;62754;48.252;11.654;2023-12-20T13:20:59;96127.00;;;5.26;86.19
74270;BME280;62754;48.252;11.654;2023-12-20T13:23:25;96131.94;;;5.44;85.56
74270;BME280;62754;48.252;11.654;2023-12-20T13:25:51;96130.84;;;5.62;84.13
74270;BME280;62754;48.252;11.654;2023-12-20T13:28:16;96132.22;;;5.53;84.00
74270;BME280;62754;48.252;11.654;2023-12-20T13:30:42;96135.34;;;5.44;83.83
74270;BME280;62754;48.252;11.654;2023-12-20T13:33:08;96142.44;;;5.39;84.84
74270;BME280;62754;48.252;11.654;2023-12-20T13:35:35;96129.47;;;5.28;84.69
74270;BME280;62754;48.252;11.654;2023-12-20T13:38:01;96138.94;;;5.12;83.74
74270;BME280;62754;48.252;11.654;2023-12-20T13:40:27;96139.94;;;5.23;82.90
74270;BME280;62754;48.252;11.654;2023-12-20T13:42:53;96142.56;;;5.08;82.10
74270;BME280;62754;48.252;11.654;2023-12-20T13:45:20;96155.97;;;4.97;81.90
74270;BME280;62754;48.252;11.654;2023-12-20T13:47:45;96160.69;;;5.03;81.66
74270;BME280;62754;48.252;11.654;2023-12-20T13:50:11;96160.25;;;5.11;81.06
74270;BME280;62754;48.252;11.654;2023-12-20T13:52:38;96147.06;;;5.18;79.48
74270;BME280;62754;48.252;11.654;2023-12-20T13:55:04;96144.69;;;5.15;79.30
74270;BME280;62754;48.252;11.654;2023-12-20T13:57:32;96144.75;;;5.14;78.76
74270;BME280;62754;48.252;11.654;2023-12-20T13:59:59;96150.16;;;5.09;79.48
74270;BME280;62754;48.252;11.654;2023-12-20T14:02:25;96147.84;;;5.05;78.53
74270;BME280;62754;48.252;11.654;2023-12-20T14:04:52;96154.13;;;4.99;78.80
74270;BME280;62754;48.252;11.654;2023-12-20T14:07:18;96159.34;;;4.98;79.04
74270;BME280;62754;48.252;11.654;2023-12-20T14:09:44;96160.13;;;4.98;79.84
74270;BME280;62754;48.252;11.654;2023-12-20T14:12:11;96171.09;;;5.00;79.50
74270;BME280;62754;48.252;11.654;2023-12-20T14:14:37;96171.09;;;5.00;79.23
74270;BME280;62754;48.252;11.654;2023-12-20T14:17:03;96169.63;;;4.96;78.93
74270;BME280;62754;48.252;11.654;2023-12-20T14:19:32;96172.97;;;4.83;79.30
74270;BME280;62754;48.252;11.654;2023-12-20T14:21:57;96177.16;;;4.68;77.64
74270;BME280;62754;48.252;11.654;2023-12-20T14:24:27;96168.44;;;4.72;77.88
74270;BME280;62754;48.252;11.654;2023-12-20T14:26:53;96167.16;;;4.65;78.99
74270;BME280;62754;48.252;11.654;2023-12-20T14:29:18;96164.34;;;4.69;77.63
74270;BME280;62754;48.252;11.654;2023-12-20T14:31:44;96166.03;;;4.55;78.08
74270;BME280;62754;48.252;11.654;2023-12-20T14:34:10;96180.25;;;4.59;77.68
74270;BME280;62754;48.252;11.654;2023-12-20T14:36:37;96179.25;;;4.61;77.21
74270;BME280;62754;48.252;11.654;2023-12-20T14:39:03;96178.94;;;4.52;77.51
74270;BME280;62754;48.252;11.654;2023-12-20T14:41:32;96166.44;;;4.47;77.71
74270;BME280;62754;48.252;11.654;2023-12-20T14:43:58;96176.66;;;4.47;77.74
74270;BME280;62754;48.252;11.654;2023-12-20T14:46:25;96181.75;;;4.47;77.97
74270;BME280;62754;48.252;11.654;2023-12-20T14:48:51;96177.28;;;4.51;77.82
74270;BME280;62754;48.252;11.654;2023-12-20T14:51:17;96173.44;;;4.44;78.19
74270;BME280;62754;48.252;11.654;2023-12-20T14:53:43;96174.34;;;4.43;77.58
74270;BME280;62754;48.252;11.654;2023-12-20T14:56:08;96174.81;;;4.33;78.04
74270;BME280;62754;48.252;11.654;2023-12-20T14:58:34;96181.22;;;4.41;78.83
74270;BME280;62754;48.252;11.654;2023-12-20T15:01:02;96181.81;;;4.46;78.99
74270;BME280;62754;48.252;11.654;2023-12-20T15:03:28;96174.34;;;4.43;79.68
74270;BME280;62754;48.252;11.654;2023-12-20T15:05:55;96176.66;;;4.47;78.78
74270;BME280;62754;48.252;11.654;2023-12-20T15:08:24;96174.16;;;4.30;79.20
74270;BME280;62754;48.252;11.654;2023-12-20T15:10:49;96180.34;;;4.26;79.20
74270;BME280;62754;48.252;11.654;2023-12-20T15:13:15;96181.59;;;4.19;78.84
74270;BME280;62754;48.252;11.654;2023-12-20T15:15:41;96185.38;;;4.12;78.83
74270;BME280;62754;48.252;11.654;2023-12-20T15:18:07;96177.78;;;4.10;78.94
74270;BME280;62754;48.252;11.654;2023-12-20T15:20:33;96177.53;;;4.15;78.72
74270;BME280;62754;48.252;11.654;2023-12-20T15:23:01;96177.31;;;4.04;78.09
74270;BME280;62754;48.252;11.654;2023-12-20T15:25:31;96177.13;;;4.07;78.31
74270;BME280;62754;48.252;11.654;2023-12-20T15:27:57;96177.47;;;4.01;78.15
74270;BME280;62754;48.252;11.654;2023-12-20T15:30:23;96171.19;;;4.06;77.34
74270;BME280;62754;48.252;11.654;2023-12-20T15:32:50;96177.97;;;4.07;77.18
74270;BME280;62754;48.252;11.654;2023-12-20T15:35:16;96168.59;;;4.08;77.25
74270;BME280;62754;48.252;11.654;2023-12-20T15:37:42;96168.16;;;4.00;77.27
74270;BME280;62754;48.252;11.654;2023-12-20T15:40:09;96164.78;;;3.99;77.73
74270;BME280;62754;48.252;11.654;2023-12-20T15:42:36;96163.25;;;3.97;78.04
74270;BME280;62754;48.252;11.654;2023-12-20T15:45:03;96166.84;;;3.93;78.06
74270;BME280;62754;48.252;11.654;2023-12-20T15:47:29;96154.75;;;3.96;78.29
74270;BME280;62754;48.252;11.654;2023-12-20T15:49:55;96159.09;;;3.94;78.11
74270;BME280;62754;48.252;11.654;2023-12-20T15:52:20;96154.09;;;3.93;78.40
74270;BME280;62754;48.252;11.654;2023-12-20T15:54:46;96146.53;;;3.91;78.45
74270;BME280;62754;48.252;11.654;2023-12-20T15:57:13;96144.88;;;3.74;79.52
74270;BME280;62754;48.252;11.654;2023-12-20T15:59:42;96145.34;;;3.65;80.47
74270;BME280;62754;48.252;11.654;2023-12-20T16:02:08;96151.69;;;3.58;79.93
74270;BME280;62754;48.252;11.654;2023-12-20T16:04:34;96159.78;;;3.49;80.60
74270;BME280;62754;48.252;11.654;2023-12-20T16:07:00;96164.28;;;3.44;80.25
74270;BME280;62754;48.252;11.654;2023-12-20T16:09:25;96170.13;;;3.46;80.01
74270;BME280;62754;48.252;11.654;2023-12-20T16:11:51;96162.56;;;3.45;79.81
74270;BME280;62754;48.252;11.654;2023-12-20T16:14:17;96159.28;;;3.43;79.69
74270;BME280;62754;48.252;11.654;2023-12-20T16:16:45;96161.28;;;3.36;80.01
74270;BME280;62754;48.252;11.654;2023-12-20T16:19:11;96156.72;;;3.43;79.35
74270;BME280;62754;48.252;11.654;2023-12-20T16:21:36;96165.28;;;3.24;79.67
74270;BME280;62754;48.252;11.654;2023-12-20T16:24:02;96170.53;;;3.21;79.53
74270;BME280;62754;48.252;11.654;2023-12-20T16:26:29;96175.03;;;3.16;79.75
74270;BME280;62754;48.252;11.654;2023-12-20T16:28:54;96183.09;;;3.24;79.68
74270;BME280;62754;48.252;11.654;2023-12-20T16:31:20;96175.78;;;3.18;79.98
74270;BME280;62754;48.252;11.654;2023-12-20T16:33:46;96178.69;;;3.11;80.42
74270;BME280;62754;48.252;11.654;2023-12-20T16:36:12;96187.22;;;3.10;80.88
74270;BME280;62754;48.252;11.654;2023-12-20T16:38:38;96189.94;;;3.07;80.77
74270;BME280;62754;48.252;11.654;2023-12-20T16:41:04;96195.63;;;3.12;80.97
74270;BME280;62754;48.252;11.654;2023-12-20T16:43:30;96192.31;;;3.10;80.65
74270;BME280;62754;48.252;11.654;2023-12-20T16:45:56;96192.31;;;3.10;80.71
74270;BME280;62754;48.252;11.654;2023-12-20T16:48:22;96198.00;;;2.98;81.07
74270;BME280;62754;48.252;11.654;2023-12-20T16:50:48;96207.06;;;3.03;80.91
74270;BME280;62754;48.252;11.654;2023-12-20T16:53:14;96209.91;;;3.14;80.10
74270;BME280;62754;48.252;11.654;2023-12-20T16:55:41;96208.72;;;3.04;80.70
74270;BME280;62754;48.252;11.654;2023-12-20T16:58:10;96211.56;;;2.98;80.97
74270;BME280;62754;48.252;11.654;2023-12-20T17:00:37;96215.59;;;3.02;80.78
74270;BME280;62754;48.252;11.654;2023-12-20T17:03:03;96210.97;;;2.93;80.86
74270;BME280;62754;48.252;11.654;2023-12-20T17:05:29;96213.72;;;2.88;81.37
74270;BME280;62754;48.252;11.654;2023-12-20T17:07:55;96209.84;;;2.81;81.99
74270;BME280;62754;48.252;11.654;2023-12-20T17:10:21;96212.28;;;2.66;82.41
74270;BME280;62754;48.252;11.654;2023-12-20T17:12:47;96203.00;;;2.65;82.21
74270;BME280;62754;48.252;11.654;2023-12-20T17:15:13;96199.41;;;2.69;81.65
74270;BME280;62754;48.252;11.654;2023-12-20T17:17:39;96195.38;;;2.65;80.33
74270;BME280;62754;48.252;11.654;2023-12-20T17:20:05;96190.59;;;2.76;79.05
74270;BME280;62754;48.252;11.654;2023-12-20T17:22:32;96207.66;;;2.74;78.88
74270;BME280;62754;48.252;11.654;2023-12-20T17:24:58;96204.34;;;2.72;78.47
74270;BME280;62754;48.252;11.654;2023-12-20T17:27:24;96193.50;;;2.68;78.28
74270;BME280;62754;48.252;11.654;2023-12-20T17:29:50;96202.31;;;2.78;77.93
74270;BME280;62754;48.252;11.654;2023-12-20T17:32:16;96195.16;;;2.86;77.36
74270;BME280;62754;48.252;11.654;2023-12-20T17:34:41;96195.47;;;2.98;76.52
74270;BME280;62754;48.252;11.654;2023-12-20T17:37:07;96182.59;;;3.01;76.50
74270;BME280;62754;48.252;11.654;2023-12-20T17:39:33;96179.38;;;3.14;76.41
74270;BME280;62754;48.252;11.654;2023-12-20T17:42:00;96190.06;;;3.21;75.76
74270;BME280;62754;48.252;11.654;2023-12-20T17:44:26;96195.03;;;3.24;75.95
74270;BME280;62754;48.252;11.654;2023-12-20T17:46:52;96200.47;;;3.33;75.90
74270;BME280;62754;48.252;11.654;2023-12-20T17:49:19;96185.69;;;3.40;74.77
74270;BME280;62754;48.252;11.654;2023-12-20T17:51:46;96189.75;;;3.44;74.82
74270;BME280;62754;48.252;11.654;2023-12-20T17:54:14;96183.47;;;3.51;73.89
74270;BME280;62754;48.252;11.654;2023-12-20T17:56:40;96186.66;;;3.55;72.69
74270;BME280;62754;48.252;11.654;2023-12-20T17:59:06;96184.56;;;3.63;72.47
74270;BME280;62754;48.252;11.654;2023-12-20T18:01:32;96187.91;;;3.63;72.29
74270;BME280;62754;48.252;11.654;2023-12-20T18:03:58;96194.41;;;3.69;72.72
74270;BME280;62754;48.252;11.654;2023-12-20T18:06:24;96193.66;;;3.67;72.03
74270;BME280;62754;48.252;11.654;2023-12-20T18:08:50;96199.53;;;3.69;72.16
74270;BME280;62754;48.252;11.654;2023-12-20T18:11:16;96206.41;;;3.67;72.47
74270;BME280;62754;48.252;11.654;2023-12-20T18:13:41;96208.88;;;3.68;72.14
74270;BME280;62754;48.252;11.654;2023-12-20T18:16:07;96199.75;;;3.64;72.63
74270;BME280;62754;48.252;11.654;2023-12-20T18:18:35;96209.47;;;3.73;72.75
74270;BME280;62754;48.252;11.654;2023-12-20T18:21:01;96212.84;;;3.74;71.81
74270;BME280;62754;48.252;11.654;2023-12-20T18:23:27;96213.28;;;3.82;72.58
74270;BME280;62754;48.252;11.654;2023-12-20T18:25:53;96218.53;;;3.79;72.46
74270;BME280;62754;48.252;11.654;2023-12-20T18:28:20;96226.41;;;3.74;71.88
74270;BME280;62754;48.252;11.654;2023-12-20T18:30:46;96215.75;;;3.83;72.04
74270;BME280;62754;48.252;11.654;2023-12-20T18:33:12;96220.84;;;3.83;72.29
74270;BME280;62754;48.252;11.654;2023-12-20T18:35:38;96219.94;;;3.84;71.75
74270;BME280;62754;48.252;11.654;2023-12-20T18:38:05;96225.28;;;3.80;71.92
74270;BME280;62754;48.252;11.654;2023-12-20T18:40:31;96227.59;;;3.84;71.03
74270;BME280;62754;48.252;11.654;2023-12-20T18:42:57;96221.09;;;3.95;70.33
74270;BME280;62754;48.252;11.654;2023-12-20T18:45:23;96228.91;;;3.92;69.86
74270;BME280;62754;48.252;11.654;2023-12-20T18:47:49;96221.88;;;3.97;69.73
74270;BME280;62754;48.252;11.654;2023-12-20T18:50:15;96222.09;;;3.92;69.75
74270;BME280;62754;48.252;11.654;2023-12-20T18:52:41;96224.31;;;3.98;69.17
74270;BME280;62754;48.252;11.654;2023-12-20T18:55:07;96232.06;;;3.97;69.37
74270;BME280;62754;48.252;11.654;2023-12-20T18:57:33;96221.88;;;3.97;69.27
74270;BME280;62754;48.252;11.654;2023-12-20T18:59:59;96214.38;;;3.94;69.13
74270;BME280;62754;48.252;11.654;2023-12-20T19:02:25;96217.09;;;4.06;68.28
74270;BME280;62754;48.252;11.654;2023-12-20T19:04:50;96196.19;;;4.00;68.57
74270;BME280;62754;48.252;11.654;2023-12-20T19:07:16;96204.03;;;3.97;68.32
74270;BME280;62754;48.252;11.654;2023-12-20T19:09:42;96199.47;;;4.02;68.30
74270;BME280;62754;48.252;11.654;2023-12-20T19:12:08;96203.84;;;4.00;67.40
74270;BME280;62754;48.252;11.654;2023-12-20T19:14:34;96193.72;;;3.98;68.00
74270;BME280;62754;48.252;11.654;2023-12-20T19:17:00;96208.94;;;4.00;67.50
74270;BME280;62754;48.252;11.654;2023-12-20T19:19:27;96210.44;;;4.04;67.42
74270;BME280;62754;48.252;11.654;2023-12-20T19:21:56;96208.63;;;4.06;67.33
74270;BME280;62754;48.252;11.654;2023-12-20T19:24:22;96202.13;;;4.00;68.59
74270;BME280;62754;48.252;11.654;2023-12-20T19:26:47;96214.28;;;3.95;67.80
74270;BME280;62754;48.252;11.654;2023-12-20T19:29:13;96205.69;;;3.98;67.07
74270;BME280;62754;48.252;11.654;2023-12-20T19:31:39;96204.75;;;3.99;67.27
74270;BME280;62754;48.252;11.654;2023-12-20T19:34:05;96199.59;;;4.00;67.01
74270;BME280;62754;48.252;11.654;2023-12-20T19:36:31;96200.88;;;3.92;67.21
74270;BME280;62754;48.252;11.654;2023-12-20T19:38:57;96192.75;;;3.85;67.45
74270;BME280;62754;48.252;11.654;2023-12-20T19:41:23;96187.13;;;3.94;67.48
74270;BME280;62754;48.252;11.654;2023-12-20T19:43:49;96195.44;;;3.82;68.51
74270;BME280;62754;48.252;11.654;2023-12-20T19:46:15;96195.44;;;3.82;68.07
74270;BME280;62754;48.252;11.654;2023-12-20T19:48:41;96187.88;;;3.80;68.12
74270;BME280;62754;48.252;11.654;2023-12-20T19:51:08;96189.19;;;3.88;68.29
74270;BME280;62754;48.252;11.654;2023-12-20T19:53:34;96185.81;;;3.87;68.69
74270;BME280;62754;48.252;11.654;2023-12-20T19:55:59;96183.50;;;3.82;68.61
74270;BME280;62754;48.252;11.654;2023-12-20T19:58:26;96186.31;;;3.78;68.61
74270;BME280;62754;48.252;11.654;2023-12-20T20:00:52;96189.94;;;3.90;68.30
74270;BME280;62754;48.252;11.654;2023-12-20T20:03:18;96183.94;;;3.91;68.81
74270;BME280;62754;48.252;11.654;2023-12-20T20:05:45;96171.84;;;3.94;68.49
74270;BME280;62754;48.252;11.654;2023-12-20T20:08:11;96178.41;;;3.82;69.37
74270;BME280;62754;48.252;11.654;2023-12-20T20:10:36;96165.38;;;3.89;69.40
74270;BME280;62754;48.252;11.654;2023-12-20T20:13:03;96166.34;;;3.86;69.79
74270;BME280;62754;48.252;11.654;2023-12-20T20:15:29;96170.75;;;3.82;70.88
74270;BME280;62754;48.252;11.654;2023-12-20T20:17:55;96161.56;;;3.80;70.48
74270;BME280;62754;48.252;11.654;2023-12-20T20:20:20;96167.81;;;3.90;70.87
74270;BME280;62754;48.252;11.654;2023-12-20T20:22:47;96161.66;;;3.94;70.51
74270;BME280;62754;48.252;11.654;2023-12-20T20:25:13;96169.22;;;3.96;70.70
74270;BME280;62754;48.252;11.654;2023-12-20T20:27:39;96156.91;;;4.04;70.71
74270;BME280;62754;48.252;11.654;2023-12-20T20:30:05;96162.56;;;3.93;71.00
74270;BME280;62754;48.252;11.654;2023-12-20T20:32:31;96167.75;;;3.92;71.19
74270;BME280;62754;48.252;11.654;2023-12-20T20:34:57;96173.50;;;3.95;71.13
74270;BME280;62754;48.252;11.654;2023-12-20T20:37:23;96170.88;;;3.97;71.44
74270;BME280;62754;48.252;11.654;2023-12-20T20:39:48;96171.84;;;3.94;71.38
74270;BME280;62754;48.252;11.654;2023-12-20T20:42:14;96179.34;;;3.97;72.30
74270;BME280;62754;48.252;11.654;2023-12-20T20:44:40;96164.06;;;3.97;72.28
74270;BME280;62754;48.252;11.654;2023-12-20T20:47:06;96165.78;;;3.97;73.19
74270;BME280;62754;48.252;11.654;2023-12-20T20:49:32;96148.25;;;3.91;73.30
74270;BME280;62754;48.252;11.654;2023-12-20T20:51:58;96155.00;;;3.92;73.34
74270;BME280;62754;48.252;11.654;2023-12-20T20:54:24;96147.19;;;3.95;72.77
74270;BME280;62754;48.252;11.654;2023-12-20T20:56:50;96144.75;;;3.93;72.62
74270;BME280;62754;48.252;11.654;2023-12-20T20:59:18;96152.44;;;3.92;73.08
74270;BME280;62754;48.252;11.654;2023-12-20T21:01:44;96136.50;;;3.88;72.94
74270;BME280;62754;48.252;11.654;2023-12-20T21:04:10;96129.19;;;3.82;73.73
74270;BME280;62754;48.252;11.654;2023-12-20T21:06:35;96127.78;;;3.92;73.76
74270;BME280;62754;48.252;11.654;2023-12-20T21:09:01;96124.50;;;3.90;73.70
74270;BME280;62754;48.252;11.654;2023-12-20T21:11:27;96122.94;;;3.88;73.82
74270;BME280;62754;48.252;11.654;2023-12-20T21:13:53;96154.56;;;3.83;73.08
74270;BME280;62754;48.252;11.654;2023-12-20T21:16:19;96136.16;;;3.78;74.23
74270;BME280;62754;48.252;11.654;2023-12-20T21:18:45;96114.13;;;3.62;74.52
74270;BME280;62754;48.252;11.654;2023-12-20T21:21:12;96135.91;;;3.67;74.88
74270;BME280;62754;48.252;11.654;2023-12-20T21:23:38;96124.31;;;3.62;75.75
74270;BME280;62754;48.252;11.654;2023-12-20T21:26:05;96128.59;;;3.61;76.13
74270;BME280;62754;48.252;11.654;2023-12-20T21:28:34;96121.84;;;3.60;75.58
74270;BME280;62754;48.252;11.654;2023-12-20T21:31:01;96122.00;;;3.57;75.89
74270;BME280;62754;48.252;11.654;2023-12-20T21:33:27;96124.72;;;3.54;76.08
74270;BME280;62754;48.252;11.654;2023-12-20T21:35:53;96102.03;;;3.50;76.16
74270;BME280;62754;48.252;11.654;2023-12-20T21:38:19;96105.72;;;3.60;76.12
74270;BME280;62754;48.252;11.654;2023-12-20T21:40:45;96122.41;;;3.50;76.13
74270;BME280;62754;48.252;11.654;2023-12-20T21:43:12;96101.13;;;3.51;76.62
74270;BME280;62754;48.252;11.654;2023-12-20T21:45:37;96104.41;;;3.53;76.65
74270;BME280;62754;48.252;11.654;2023-12-20T21:48:03;96094.97;;;3.55;77.20
74270;BME280;62754;48.252;11.654;2023-12-20T21:50:29;96090.03;;;3.52;76.50
74270;BME280;62754;48.252;11.654;2023-12-20T21:52:55;96081.41;;;3.54;76.70
74270;BME280;62754;48.252;11.654;2023-12-20T21:55:22;96101.25;;;3.48;77.61
74270;BME280;62754;48.252;11.654;2023-12-20T21:57:48;96086.09;;;3.46;76.98
74270;BME280;62754;48.252;11.654;2023-12-20T22:00:14;96078.34;;;3.48;76.42
74270;BME280;62754;48.252;11.654;2023-12-20T22:02:40;96080.22;;;3.44;77.29
74270;BME280;62754;48.252;11.654;2023-12-20T22:05:06;96076.63;;;3.48;77.02
74270;BME280;62754;48.252;11.654;2023-12-20T22:07:32;96078.13;;;3.52;77.32
74270;BME280;62754;48.252;11.654;2023-12-20T22:09:58;96075.06;;;3.46;77.46
74270;BME280;62754;48.252;11.654;2023-12-20T22:12:24;96074.75;;;3.52;77.55
74270;BME280;62754;48.252;11.654;2023-12-20T22:14:50;96087.97;;;3.43;77.79
74270;BME280;62754;48.252;11.654;2023-12-20T22:17:16;96082.13;;;3.41;77.85
74270;BME280;62754;48.252;11.654;2023-12-20T22:19:42;96068.56;;;3.40;77.88
74270;BME280;62754;48.252;11.654;2023-12-20T22:22:08;96070.97;;;3.43;77.13
74270;BME280;62754;48.252;11.654;2023-12-20T22:24:34;96067.59;;;3.43;77.24
74270;BME280;62754;48.252;11.654;2023-12-20T22:26:59;96069.31;;;3.42;77.52
74270;BME280;62754;48.252;11.654;2023-12-20T22:29:26;96065.88;;;3.43;76.63
74270;BME280;62754;48.252;11.654;2023-12-20T22:31:55;96066.00;;;3.40;76.99
74270;BME280;62754;48.252;11.654;2023-12-20T22:34:21;96089.69;;;3.42;77.21
74270;BME280;62754;48.252;11.654;2023-12-20T22:36:47;96052.97;;;3.46;76.40
74270;BME280;62754;48.252;11.654;2023-12-20T22:39:13;96045.81;;;3.53;76.76
74270;BME280;62754;48.252;11.654;2023-12-20T22:41:39;96050.84;;;3.54;76.36
74270;BME280;62754;48.252;11.654;2023-12-20T22:44:07;96036.69;;;3.49;76.80
74270;BME280;62754;48.252;11.654;2023-12-20T22:46:33;96034.25;;;3.47;76.52
74270;BME280;62754;48.252;11.654;2023-12-20T22:49:00;96036.81;;;3.47;76.35
74270;BME280;62754;48.252;11.654;2023-12-20T22:51:27;96025.69;;;3.48;76.02
74270;BME280;62754;48.252;11.654;2023-12-20T22:53:54;96037.88;;;3.43;76.30
74270;BME280;62754;48.252;11.654;2023-12-20T22:56:21;96031.84;;;3.44;76.27
74270;BME280;62754;48.252;11.654;2023-12-20T22:58:47;96034.50;;;3.43;75.93
74270;BME280;62754;48.252;11.654;2023-12-20T23:01:13;96026.03;;;3.42;76.39
74270;BME280;62754;48.252;11.654;2023-12-20T23:03:39;96010.41;;;3.48;75.58
74270;BME280;62754;48.252;11.654;2023-12-20T23:06:05;96022.72;;;3.56;74.95
74270;BME280;62754;48.252;11.654;2023-12-20T23:08:30;96006.66;;;3.55;75.42
74270;BME280;62754;48.252;11.654;2023-12-20T23:10:57;96003.19;;;3.56;75.66
74270;BME280;62754;48.252;11.654;2023-12-20T23:13:23;96000.47;;;3.59;75.74
74270;BME280;62754;48.252;11.654;2023-12-20T23:15:48;96003.94;;;3.58;75.04
74270;BME280;62754;48.252;11.654;2023-12-20T23:18:14;95993.34;;;3.66;74.72
74270;BME280;62754;48.252;11.654;2023-12-20T23:20:40;95990.59;;;3.69;74.55
74270;BME280;62754;48.252;11.654;2023-12-20T23:23:08;95998.91;;;3.72;74.12
74270;BME280;62754;48.252;11.654;2023-12-20T23:25:34;95980.91;;;3.75;74.04
74270;BME280;62754;48.252;11.654;2023-12-20T23:28:00;95981.81;;;3.74;73.22
74270;BME280;62754;48.252;11.654;2023-12-20T23:30:26;95971.13;;;3.68;73.54
74270;BME280;62754;48.252;11.654;2023-12-20T23:32:51;95976.03;;;3.71;73.65
74270;BME280;62754;48.252;11.654;2023-12-20T23:35:17;95970.47;;;3.80;73.02
74270;BME280;62754;48.252;11.654;2023-12-20T23:37:43;95964.03;;;3.89;72.84
74270;BME280;62754;48.252;11.654;2023-12-20T23:40:09;95958.94;;;3.89;71.54
74270;BME280;62754;48.252;11.654;2023-12-20T23:42:35;95951.38;;;3.87;72.19